createdAt,value
2016-06-15T00:00:02.596Z,995.87
2016-06-15T00:01:02.616Z,995.84
2016-06-15T00:02:02.650Z,995.86
2016-06-15T00:03:02.669Z,995.82
2016-06-15T00:04:02.703Z,995.79
2016-06-15T00:05:02.722Z,995.79
2016-06-15T00:06:02.756Z,995.81
2016-06-15T00:07:02.775Z,995.79
2016-06-15T00:08:02.809Z,995.76
2016-06-15T00:09:02.827Z,995.81
2016-06-15T00:10:02.847Z,995.8
2016-06-15T00:11:02.880Z,995.84
2016-06-15T00:12:02.900Z,995.79
2016-06-15T00:13:02.933Z,995.77
2016-06-15T00:14:02.953Z,995.78
2016-06-15T00:15:02.987Z,995.8
2016-06-15T00:16:03.006Z,995.72
2016-06-15T00:17:03.040Z,995.73
2016-06-15T00:18:03.059Z,995.74
2016-06-15T00:19:03.077Z,995.75
2016-06-15T00:20:03.111Z,995.71
2016-06-15T00:21:03.131Z,995.74
2016-06-15T00:22:03.164Z,995.74
2016-06-15T00:23:03.184Z,995.69
2016-06-15T00:24:03.217Z,995.7
2016-06-15T00:25:03.237Z,995.68
2016-06-15T00:26:03.254Z,995.69
2016-06-15T00:27:03.290Z,995.7
2016-06-15T00:28:03.323Z,995.71
2016-06-15T00:29:03.343Z,995.71
2016-06-15T00:30:03.360Z,995.64
2016-06-15T00:31:03.395Z,995.69
2016-06-15T00:32:03.414Z,995.65
2016-06-15T00:33:03.448Z,995.67
2016-06-15T00:34:03.467Z,995.65
2016-06-15T00:35:03.501Z,995.64
2016-06-15T00:36:03.552Z,995.63
2016-06-15T00:37:03.554Z,995.67
2016-06-15T00:38:03.573Z,995.68
2016-06-15T00:39:03.592Z,995.71
2016-06-15T00:40:03.627Z,995.67
2016-06-15T00:41:03.644Z,995.68
2016-06-15T00:42:03.679Z,995.7
2016-06-15T00:43:03.698Z,995.65
2016-06-15T00:44:03.732Z,995.66
2016-06-15T00:45:03.751Z,995.67
2016-06-15T00:46:03.785Z,995.75
2016-06-15T00:47:03.804Z,995.76
2016-06-15T00:48:03.822Z,995.73
2016-06-15T00:49:03.857Z,995.77
2016-06-15T00:50:03.891Z,995.76
2016-06-15T00:51:03.911Z,995.77
2016-06-15T00:52:03.928Z,995.8
2016-06-15T00:53:03.963Z,995.79
2016-06-15T00:54:03.982Z,995.81
2016-06-15T00:55:04.016Z,995.79
2016-06-15T00:56:04.035Z,995.77
2016-06-15T00:57:04.069Z,995.78
2016-06-15T00:58:04.119Z,995.76
2016-06-15T00:59:04.173Z,995.83
2016-06-15T01:00:04.245Z,995.89
2016-06-15T01:01:04.299Z,995.83
2016-06-15T01:02:04.385Z,995.79
2016-06-15T01:03:04.406Z,995.84
2016-06-15T01:04:04.453Z,995.75
2016-06-15T01:05:04.485Z,995.74
2016-06-15T01:06:04.548Z,995.75
2016-06-15T01:07:04.564Z,995.74
2016-06-15T01:08:04.604Z,995.71
2016-06-15T01:09:04.629Z,995.72
2016-06-15T01:10:04.651Z,995.8
2016-06-15T01:11:04.692Z,995.79
2016-06-15T01:12:04.714Z,995.7
2016-06-15T01:13:04.752Z,995.71
2016-06-15T01:14:04.771Z,995.7
2016-06-15T01:15:04.807Z,995.68
2016-06-15T01:16:04.828Z,995.74
2016-06-15T01:17:04.863Z,995.69
2016-06-15T01:18:04.884Z,995.64
2016-06-15T01:19:04.918Z,995.69
2016-06-15T01:20:05.047Z,995.64
2016-06-15T01:21:04.957Z,995.68
2016-06-15T01:22:04.993Z,995.68
2016-06-15T01:23:05.011Z,995.7
2016-06-15T01:24:05.046Z,995.67
2016-06-15T01:25:05.064Z,995.69
2016-06-15T01:26:05.098Z,995.69
2016-06-15T01:27:05.118Z,995.66
2016-06-15T01:28:05.151Z,995.67
2016-06-15T01:29:05.171Z,995.69
2016-06-15T01:30:05.204Z,995.66
2016-06-15T01:31:05.224Z,995.67
2016-06-15T01:32:05.241Z,995.65
2016-06-15T01:33:05.277Z,995.69
2016-06-15T01:34:05.294Z,995.64
2016-06-15T01:35:05.330Z,995.62
2016-06-15T01:36:05.347Z,995.59
2016-06-15T01:37:05.382Z,995.62
2016-06-15T01:38:05.401Z,995.65
2016-06-15T01:39:05.435Z,995.65
2016-06-15T01:40:05.454Z,995.63
2016-06-15T01:41:05.473Z,995.65
2016-06-15T01:42:05.507Z,995.6
2016-06-15T01:43:05.525Z,995.61
2016-06-15T01:44:05.561Z,995.59
2016-06-15T01:45:05.594Z,995.58
2016-06-15T01:46:05.613Z,995.58
2016-06-15T01:47:05.631Z,995.56
2016-06-15T01:48:05.666Z,995.58
2016-06-15T01:49:05.685Z,995.58
2016-06-15T01:50:05.719Z,995.51
2016-06-15T01:51:05.738Z,995.52
2016-06-15T01:52:05.757Z,995.55
2016-06-15T01:53:05.791Z,995.53
2016-06-15T01:54:05.809Z,995.5
2016-06-15T01:55:05.844Z,995.49
2016-06-15T01:56:05.862Z,995.48
2016-06-15T01:57:05.897Z,995.52
2016-06-15T01:58:05.915Z,995.54
2016-06-15T01:59:05.950Z,995.54
2016-06-15T02:00:05.969Z,995.55
2016-06-15T02:01:05.988Z,995.53
2016-06-15T02:02:06.022Z,995.51
2016-06-15T02:03:06.041Z,995.52
2016-06-15T02:04:06.075Z,995.49
2016-06-15T02:05:06.437Z,995.49
2016-06-15T02:06:06.128Z,995.48
2016-06-15T02:07:06.146Z,995.49
2016-06-15T02:08:06.181Z,995.46
2016-06-15T02:09:06.199Z,995.46
2016-06-15T02:10:06.233Z,995.48
2016-06-15T02:11:06.253Z,995.47
2016-06-15T02:12:06.272Z,995.46
2016-06-15T02:13:06.306Z,995.48
2016-06-15T02:14:06.325Z,995.47
2016-06-15T02:15:06.359Z,995.49
2016-06-15T02:16:06.377Z,995.45
2016-06-15T02:17:06.412Z,995.44
2016-06-15T02:18:06.430Z,995.46
2016-06-15T02:19:06.465Z,995.44
2016-06-15T02:20:06.671Z,995.45
2016-06-15T02:21:06.517Z,995.43
2016-06-15T02:22:06.537Z,995.41
2016-06-15T02:23:06.555Z,995.44
2016-06-15T02:24:06.590Z,995.43
2016-06-15T02:25:06.608Z,995.41
2016-06-15T02:26:06.642Z,995.38
2016-06-15T02:27:06.660Z,995.38
2016-06-15T02:28:06.696Z,995.36
2016-06-15T02:29:06.713Z,995.33
2016-06-15T02:30:06.749Z,995.36
2016-06-15T02:31:06.766Z,995.39
2016-06-15T02:32:06.801Z,995.35
2016-06-15T02:33:06.820Z,995.33
2016-06-15T02:34:06.839Z,995.35
2016-06-15T02:35:07.123Z,995.35
2016-06-15T02:36:06.892Z,995.35
2016-06-15T02:37:06.926Z,995.37
2016-06-15T02:38:06.944Z,995.33
2016-06-15T02:39:06.979Z,995.31
2016-06-15T02:40:06.997Z,995.34
2016-06-15T02:41:07.033Z,995.32
2016-06-15T02:42:07.050Z,995.38
2016-06-15T02:43:07.070Z,995.36
2016-06-15T02:44:07.104Z,995.36
2016-06-15T02:45:07.123Z,995.31
2016-06-15T02:46:07.157Z,995.31
2016-06-15T02:47:07.176Z,995.36
2016-06-15T02:48:07.210Z,995.34
2016-06-15T02:49:07.228Z,995.36
2016-06-15T02:50:07.264Z,995.32
2016-06-15T02:51:07.781Z,995.33
2016-06-15T02:52:07.301Z,995.29
2016-06-15T02:53:07.334Z,995.3
2016-06-15T02:54:07.354Z,995.26
2016-06-15T02:55:07.388Z,995.28
2016-06-15T02:56:07.407Z,995.28
2016-06-15T02:57:07.440Z,995.28
2016-06-15T02:58:07.460Z,995.31
2016-06-15T02:59:07.493Z,995.29
2016-06-15T03:00:07.512Z,995.26
2016-06-15T03:01:07.547Z,995.27
2016-06-15T03:02:07.566Z,995.28
2016-06-15T03:03:07.584Z,995.27
2016-06-15T03:04:07.618Z,995.27
2016-06-15T03:05:07.652Z,995.26
2016-06-15T03:06:07.672Z,995.25
2016-06-15T03:07:07.706Z,995.27
2016-06-15T03:08:07.725Z,995.3
2016-06-15T03:09:07.744Z,995.24
2016-06-15T03:10:07.777Z,995.26
2016-06-15T03:11:07.796Z,995.25
2016-06-15T03:12:07.815Z,995.21
2016-06-15T03:13:07.849Z,995.24
2016-06-15T03:14:07.868Z,995.28
2016-06-15T03:15:07.902Z,995.21
2016-06-15T03:16:07.921Z,995.23
2016-06-15T03:17:07.956Z,995.21
2016-06-15T03:18:07.974Z,995.22
2016-06-15T03:19:08.008Z,995.23
2016-06-15T03:20:08.027Z,995.21
2016-06-15T03:21:08.655Z,995.22
2016-06-15T03:22:08.079Z,995.19
2016-06-15T03:23:08.099Z,995.21
2016-06-15T03:24:08.132Z,995.22
2016-06-15T03:25:08.152Z,995.23
2016-06-15T03:26:08.186Z,995.22
2016-06-15T03:27:08.220Z,995.23
2016-06-15T03:28:08.239Z,995.27
2016-06-15T03:29:08.258Z,995.24
2016-06-15T03:30:08.276Z,995.22
2016-06-15T03:31:08.311Z,995.22
2016-06-15T03:32:08.329Z,995.23
2016-06-15T03:33:08.363Z,995.25
2016-06-15T03:34:08.383Z,995.24
2016-06-15T03:35:08.416Z,995.22
2016-06-15T03:36:08.436Z,995.22
2016-06-15T03:37:08.470Z,995.27
2016-06-15T03:38:08.489Z,995.25
2016-06-15T03:39:08.523Z,995.24
2016-06-15T03:40:08.542Z,995.27
2016-06-15T03:41:08.560Z,995.26
2016-06-15T03:42:08.595Z,995.24
2016-06-15T03:43:08.613Z,995.23
2016-06-15T03:44:08.647Z,995.23
2016-06-15T03:45:08.667Z,995.2
2016-06-15T03:46:08.700Z,995.21
2016-06-15T03:47:08.720Z,995.24
2016-06-15T03:48:08.753Z,995.24
2016-06-15T03:49:08.773Z,995.22
2016-06-15T03:50:08.806Z,995.27
2016-06-15T03:51:08.826Z,995.25
2016-06-15T03:52:08.843Z,995.26
2016-06-15T03:53:08.879Z,995.3
2016-06-15T03:54:08.896Z,995.27
2016-06-15T03:55:08.931Z,995.3
2016-06-15T03:56:08.950Z,995.3
2016-06-15T03:57:08.984Z,995.32
2016-06-15T03:58:09.004Z,995.27
2016-06-15T03:59:09.022Z,995.31
2016-06-15T04:00:09.056Z,995.31
2016-06-15T04:01:09.075Z,995.3
2016-06-15T04:02:09.109Z,995.28
2016-06-15T04:03:09.128Z,995.28
2016-06-15T04:04:09.162Z,995.31
2016-06-15T04:05:09.181Z,995.29
2016-06-15T04:06:09.215Z,995.29
2016-06-15T04:07:09.234Z,995.3
2016-06-15T04:08:09.268Z,995.29
2016-06-15T04:09:09.287Z,995.32
2016-06-15T04:10:09.306Z,995.3
2016-06-15T04:11:09.340Z,995.32
2016-06-15T04:12:09.358Z,995.33
2016-06-15T04:13:09.393Z,995.31
2016-06-15T04:14:09.411Z,995.32
2016-06-15T04:15:09.447Z,995.26
2016-06-15T04:16:09.464Z,995.28
2016-06-15T04:17:09.484Z,995.3
2016-06-15T04:18:09.518Z,995.3
2016-06-15T04:19:09.537Z,995.3
2016-06-15T04:20:09.571Z,995.31
2016-06-15T04:21:09.636Z,995.34
2016-06-15T04:22:09.624Z,995.36
2016-06-15T04:23:09.642Z,995.3
2016-06-15T04:24:09.678Z,995.32
2016-06-15T04:25:09.695Z,995.32
2016-06-15T04:26:09.715Z,995.3
2016-06-15T04:27:09.748Z,995.29
2016-06-15T04:28:09.768Z,995.28
2016-06-15T04:29:09.802Z,995.27
2016-06-15T04:30:09.821Z,995.28
2016-06-15T04:31:09.855Z,995.28
2016-06-15T04:32:09.874Z,995.26
2016-06-15T04:33:09.908Z,995.31
2016-06-15T04:34:09.926Z,995.27
2016-06-15T04:35:09.945Z,995.29
2016-06-15T04:36:10.182Z,995.27
2016-06-15T04:37:09.998Z,995.26
2016-06-15T04:38:10.032Z,995.27
2016-06-15T04:39:10.051Z,995.34
2016-06-15T04:40:10.086Z,995.29
2016-06-15T04:41:10.104Z,995.31
2016-06-15T04:42:10.138Z,995.31
2016-06-15T04:43:10.157Z,995.3
2016-06-15T04:44:10.191Z,995.31
2016-06-15T04:45:10.209Z,995.3
2016-06-15T04:46:10.229Z,995.36
2016-06-15T04:47:10.262Z,995.32
2016-06-15T04:48:10.282Z,995.33
2016-06-15T04:49:10.316Z,995.35
2016-06-15T04:50:10.335Z,995.33
2016-06-15T04:51:10.791Z,995.36
2016-06-15T04:52:10.388Z,995.34
2016-06-15T04:53:10.406Z,995.37
2016-06-15T04:54:10.441Z,995.35
2016-06-15T04:55:10.459Z,995.36
2016-06-15T04:56:10.493Z,995.38
2016-06-15T04:57:10.513Z,995.37
2016-06-15T04:58:10.546Z,995.35
2016-06-15T04:59:10.566Z,995.35
2016-06-15T05:00:10.599Z,995.37
2016-06-15T05:01:10.619Z,995.36
2016-06-15T05:02:10.653Z,995.39
2016-06-15T05:03:10.672Z,995.38
2016-06-15T05:04:10.690Z,995.39
2016-06-15T05:05:10.725Z,995.39
2016-06-15T05:06:10.899Z,995.41
2016-06-15T05:07:10.777Z,995.48
2016-06-15T05:08:10.797Z,995.4
2016-06-15T05:09:10.830Z,995.44
2016-06-15T05:10:10.850Z,995.43
2016-06-15T05:11:10.883Z,995.42
2016-06-15T05:12:10.903Z,995.42
2016-06-15T05:13:10.937Z,995.51
2016-06-15T05:14:10.956Z,995.45
2016-06-15T05:15:10.974Z,995.46
2016-06-15T05:16:11.009Z,995.47
2016-06-15T05:17:11.027Z,995.52
2016-06-15T05:18:11.061Z,995.52
2016-06-15T05:19:11.081Z,995.51
2016-06-15T05:20:11.114Z,995.48
2016-06-15T05:21:11.337Z,995.51
2016-06-15T05:22:11.167Z,995.52
2016-06-15T05:23:11.187Z,995.5
2016-06-15T05:24:11.220Z,995.54
2016-06-15T05:25:11.240Z,995.49
2016-06-15T05:26:11.273Z,995.52
2016-06-15T05:27:11.308Z,995.54
2016-06-15T05:28:11.311Z,995.52
2016-06-15T05:29:11.345Z,995.56
2016-06-15T05:30:11.364Z,995.56
2016-06-15T05:31:11.398Z,995.56
2016-06-15T05:32:11.417Z,995.56
2016-06-15T05:33:11.451Z,995.57
2016-06-15T05:34:11.470Z,995.54
2016-06-15T05:35:11.505Z,995.47
2016-06-15T05:36:11.523Z,995.52
2016-06-15T05:37:11.557Z,995.51
2016-06-15T05:38:11.576Z,995.54
2016-06-15T05:39:11.594Z,995.51
2016-06-15T05:40:11.628Z,995.52
2016-06-15T05:41:11.648Z,995.5
2016-06-15T05:42:11.682Z,995.51
2016-06-15T05:43:11.731Z,995.47
2016-06-15T05:44:11.735Z,995.49
2016-06-15T05:45:11.769Z,995.5
2016-06-15T05:46:11.789Z,995.5
2016-06-15T05:47:11.807Z,995.56
2016-06-15T05:48:11.842Z,995.54
2016-06-15T05:49:11.860Z,995.56
2016-06-15T05:50:11.894Z,995.54
2016-06-15T05:51:11.928Z,995.6
2016-06-15T05:52:11.948Z,995.55
2016-06-15T05:53:11.965Z,995.56
2016-06-15T05:54:12.001Z,995.59
2016-06-15T05:55:12.018Z,995.55
2016-06-15T05:56:12.053Z,995.59
2016-06-15T05:57:12.072Z,995.58
2016-06-15T05:58:12.106Z,995.6
2016-06-15T05:59:12.125Z,995.6
2016-06-15T06:00:12.159Z,995.62
2016-06-15T06:01:12.178Z,995.62
2016-06-15T06:02:12.213Z,995.64
2016-06-15T06:03:12.231Z,995.61
2016-06-15T06:04:12.266Z,995.67
2016-06-15T06:05:12.284Z,995.63
2016-06-15T06:06:12.724Z,995.66
2016-06-15T06:07:12.337Z,995.62
2016-06-15T06:08:12.372Z,995.66
2016-06-15T06:09:12.389Z,995.68
2016-06-15T06:10:12.440Z,995.67
2016-06-15T06:11:12.443Z,995.69
2016-06-15T06:12:12.477Z,995.71
2016-06-15T06:13:12.497Z,995.71
2016-06-15T06:14:12.530Z,995.75
2016-06-15T06:15:12.550Z,995.74
2016-06-15T06:16:12.583Z,995.73
2016-06-15T06:17:12.603Z,995.74
2016-06-15T06:18:12.636Z,995.74
2016-06-15T06:19:12.656Z,995.73
2016-06-15T06:20:12.690Z,995.74
2016-06-15T06:21:12.709Z,995.7
2016-06-15T06:22:12.743Z,995.77
2016-06-15T06:23:12.761Z,995.73
2016-06-15T06:24:12.796Z,995.74
2016-06-15T06:25:12.814Z,995.75
2016-06-15T06:26:12.849Z,995.77
2016-06-15T06:27:12.867Z,995.75
2016-06-15T06:28:12.901Z,995.78
2016-06-15T06:29:12.921Z,995.79
2016-06-15T06:30:12.954Z,995.79
2016-06-15T06:31:12.974Z,995.78
2016-06-15T06:32:13.007Z,995.8
2016-06-15T06:33:13.042Z,995.8
2016-06-15T06:34:13.061Z,995.87
2016-06-15T06:35:13.095Z,995.88
2016-06-15T06:36:13.114Z,995.86
2016-06-15T06:37:13.147Z,995.84
2016-06-15T06:38:13.167Z,995.88
2016-06-15T06:39:13.201Z,995.87
2016-06-15T06:40:13.220Z,995.88
2016-06-15T06:41:13.254Z,995.89
2016-06-15T06:42:13.273Z,995.9
2016-06-15T06:43:13.307Z,995.9
2016-06-15T06:44:13.325Z,995.92
2016-06-15T06:45:13.361Z,995.86
2016-06-15T06:46:13.394Z,995.9
2016-06-15T06:47:13.414Z,995.88
2016-06-15T06:48:13.431Z,995.89
2016-06-15T06:49:13.466Z,995.87
2016-06-15T06:50:13.485Z,995.92
2016-06-15T06:51:13.988Z,995.88
2016-06-15T06:52:13.554Z,995.95
2016-06-15T06:53:13.572Z,995.96
2016-06-15T06:54:13.606Z,995.97
2016-06-15T06:55:13.626Z,996
2016-06-15T06:56:13.659Z,996.01
2016-06-15T06:57:13.679Z,995.97
2016-06-15T06:58:13.712Z,996.06
2016-06-15T06:59:13.732Z,995.99
2016-06-15T07:00:13.766Z,995.94
2016-06-15T07:01:13.785Z,995.98
2016-06-15T07:02:13.819Z,995.97
2016-06-15T07:03:13.838Z,995.99
2016-06-15T07:04:13.872Z,995.95
2016-06-15T07:05:13.890Z,995.94
2016-06-15T07:06:13.925Z,995.97
2016-06-15T07:07:13.943Z,995.97
2016-06-15T07:08:13.978Z,995.98
2016-06-15T07:09:13.996Z,995.97
2016-06-15T07:10:14.030Z,995.99
2016-06-15T07:11:14.050Z,996.02
2016-06-15T07:12:14.083Z,996
2016-06-15T07:13:14.103Z,995.99
2016-06-15T07:14:14.136Z,995.99
2016-06-15T07:15:14.156Z,995.99
2016-06-15T07:16:14.190Z,996.08
2016-06-15T07:17:14.224Z,996.05
2016-06-15T07:18:14.243Z,996.05
2016-06-15T07:19:14.277Z,996.03
2016-06-15T07:20:14.296Z,996.06
2016-06-15T07:21:15.050Z,996.06
2016-06-15T07:22:14.349Z,996.02
2016-06-15T07:23:14.399Z,996.07
2016-06-15T07:24:14.402Z,996.05
2016-06-15T07:25:14.437Z,996.06
2016-06-15T07:26:14.470Z,996.01
2016-06-15T07:27:14.490Z,996.05
2016-06-15T07:28:14.524Z,996.09
2016-06-15T07:29:14.543Z,996.03
2016-06-15T07:30:14.577Z,996.05
2016-06-15T07:31:14.611Z,996.01
2016-06-15T07:32:14.630Z,996.09
2016-06-15T07:33:14.648Z,996.09
2016-06-15T07:34:14.683Z,996.08
2016-06-15T07:35:14.717Z,996.07
2016-06-15T07:36:14.735Z,996.08
2016-06-15T07:37:14.770Z,996.06
2016-06-15T07:38:14.788Z,996.13
2016-06-15T07:39:14.823Z,996.11
2016-06-15T07:40:14.858Z,996.08
2016-06-15T07:41:14.908Z,996.12
2016-06-15T07:42:14.910Z,996.08
2016-06-15T07:43:14.961Z,996.13
2016-06-15T07:44:14.979Z,996.13
2016-06-15T07:45:14.998Z,996.15
2016-06-15T07:46:15.032Z,996.09
2016-06-15T07:47:15.051Z,996.07
2016-06-15T07:48:15.085Z,996.1
2016-06-15T07:49:15.104Z,996.1
2016-06-15T07:50:15.138Z,996.1
2016-06-15T07:51:15.656Z,996.06
2016-06-15T07:52:15.192Z,996.09
2016-06-15T07:53:15.225Z,996.08
2016-06-15T07:54:15.259Z,996.06
2016-06-15T07:55:15.279Z,996.02
2016-06-15T07:56:15.313Z,996.02
2016-06-15T07:57:15.347Z,996.03
2016-06-15T07:58:15.365Z,996.06
2016-06-15T07:59:15.400Z,996.01
2016-06-15T08:00:15.419Z,995.95
2016-06-15T08:01:15.453Z,995.94
2016-06-15T08:02:15.487Z,995.97
2016-06-15T08:03:15.506Z,996.02
2016-06-15T08:04:15.540Z,996.05
2016-06-15T08:05:15.574Z,996.01
2016-06-15T08:06:15.594Z,996.05
2016-06-15T08:07:15.830Z,996.02
2016-06-15T08:08:15.647Z,996.03
2016-06-15T08:09:15.681Z,996.01
2016-06-15T08:10:15.714Z,995.99
2016-06-15T08:11:15.750Z,995.96
2016-06-15T08:12:15.767Z,995.99
2016-06-15T08:13:15.803Z,995.98
2016-06-15T08:14:15.821Z,995.97
2016-06-15T08:15:15.855Z,995.98
2016-06-15T08:16:15.891Z,995.96
2016-06-15T08:17:15.908Z,995.97
2016-06-15T08:18:15.943Z,995.95
2016-06-15T08:19:15.977Z,995.98
2016-06-15T08:20:15.995Z,995.97
2016-06-15T08:21:16.031Z,995.98
2016-06-15T08:22:18.548Z,996
2016-06-15T08:23:16.084Z,996
2016-06-15T08:24:16.118Z,995.99
2016-06-15T08:25:16.136Z,995.98
2016-06-15T08:26:16.171Z,996
2016-06-15T08:27:16.205Z,995.96
2016-06-15T08:28:16.224Z,996
2016-06-15T08:29:16.258Z,995.98
2016-06-15T08:30:16.292Z,996
2016-06-15T08:31:16.311Z,995.97
2016-06-15T08:32:16.346Z,995.99
2016-06-15T08:33:16.379Z,995.97
2016-06-15T08:34:16.399Z,995.93
2016-06-15T08:35:16.433Z,995.87
2016-06-15T08:36:16.452Z,995.93
2016-06-15T08:37:16.486Z,995.88
2016-06-15T08:38:16.519Z,995.87
2016-06-15T08:39:16.539Z,995.83
2016-06-15T08:40:16.573Z,995.85
2016-06-15T08:41:16.607Z,995.89
2016-06-15T08:42:16.626Z,995.88
2016-06-15T08:43:16.660Z,995.96
2016-06-15T08:44:16.694Z,995.96
2016-06-15T08:45:16.714Z,995.92
2016-06-15T08:46:16.747Z,995.91
2016-06-15T08:47:16.783Z,995.99
2016-06-15T08:48:16.800Z,995.98
2016-06-15T08:49:16.834Z,995.99
2016-06-15T08:50:16.870Z,996.03
2016-06-15T08:51:16.887Z,996.01
2016-06-15T08:52:16.923Z,995.99
2016-06-15T08:53:16.956Z,996.02
2016-06-15T08:54:16.991Z,995.99
2016-06-15T08:55:17.010Z,996.02
2016-06-15T08:56:17.044Z,996.01
2016-06-15T08:57:17.063Z,996.09
2016-06-15T08:58:17.097Z,996.12
2016-06-15T08:59:17.115Z,996.1
2016-06-15T09:00:22.165Z,996.13
2016-06-15T09:01:17.181Z,996.08
2016-06-15T09:02:17.201Z,996.15
2016-06-15T09:03:17.235Z,996.14
2016-06-15T09:04:17.269Z,996.14
2016-06-15T09:05:17.288Z,996.15
2016-06-15T09:06:17.338Z,996.13
2016-06-15T09:07:17.356Z,996.09
2016-06-15T09:08:17.375Z,996.13
2016-06-15T09:09:17.410Z,996.16
2016-06-15T09:10:17.443Z,996.1
2016-06-15T09:11:17.478Z,996.11
2016-06-15T09:12:17.497Z,996.1
2016-06-15T09:13:22.152Z,996.11
2016-06-15T09:14:17.544Z,996.1
2016-06-15T09:15:17.576Z,996.19
2016-06-15T09:16:17.612Z,996.16
2016-06-15T09:17:17.646Z,996.16
2016-06-15T09:18:17.681Z,996.16
2016-06-15T09:19:17.714Z,996.2
2016-06-15T09:20:17.717Z,996.22
2016-06-15T09:21:17.753Z,996.26
2016-06-15T09:22:17.786Z,996.27
2016-06-15T09:23:17.806Z,996.24
2016-06-15T09:24:17.839Z,996.28
2016-06-15T09:25:17.874Z,996.28
2016-06-15T09:26:17.892Z,996.29
2016-06-15T09:27:17.927Z,996.29
2016-06-15T09:28:17.961Z,996.31
2016-06-15T09:29:18.021Z,996.31
2016-06-15T09:30:18.008Z,996.28
2016-06-15T09:31:18.043Z,996.33
2016-06-15T09:32:18.078Z,996.3
2016-06-15T09:33:18.096Z,996.29
2016-06-15T09:34:18.130Z,996.26
2016-06-15T09:35:18.165Z,996.28
2016-06-15T09:36:18.199Z,996.23
2016-06-15T09:37:18.217Z,996.27
2016-06-15T09:38:18.251Z,996.23
2016-06-15T09:39:18.270Z,996.25
2016-06-15T09:40:18.305Z,996.27
2016-06-15T09:41:18.339Z,996.22
2016-06-15T09:42:18.389Z,996.25
2016-06-15T09:43:18.392Z,996.26
2016-06-15T09:44:18.426Z,996.23
2016-06-15T09:45:18.462Z,996.23
2016-06-15T09:46:18.479Z,996.19
2016-06-15T09:47:18.513Z,996.15
2016-06-15T09:48:18.548Z,996.17
2016-06-15T09:49:18.567Z,996.14
2016-06-15T09:50:18.616Z,996.11
2016-06-15T09:51:18.636Z,996.15
2016-06-15T09:52:18.686Z,996.1
2016-06-15T09:53:18.689Z,996.1
2016-06-15T09:54:18.722Z,996.08
2016-06-15T09:55:18.742Z,996.06
2016-06-15T09:56:18.776Z,996.1
2016-06-15T09:57:18.794Z,996.11
2016-06-15T09:58:18.829Z,996.1
2016-06-15T09:59:18.864Z,996.1
2016-06-15T10:00:18.897Z,996.11
2016-06-15T10:01:18.916Z,996.11
2016-06-15T10:02:18.950Z,996.05
2016-06-15T10:03:18.984Z,996.08
2016-06-15T10:04:19.038Z,996.04
2016-06-15T10:05:19.096Z,995.98
2016-06-15T10:06:19.170Z,995.98
2016-06-15T10:07:19.230Z,995.99
2016-06-15T10:08:19.303Z,995.99
2016-06-15T10:09:19.366Z,995.97
2016-06-15T10:10:19.399Z,996.01
2016-06-15T10:11:19.446Z,996
2016-06-15T10:12:19.496Z,995.97
2016-06-15T10:13:19.529Z,995.98
2016-06-15T10:14:19.574Z,996.01
2016-06-15T10:15:19.613Z,996.04
2016-06-15T10:16:25.918Z,995.96
2016-06-15T10:17:19.677Z,996.05
2016-06-15T10:18:19.997Z,996.03
2016-06-15T10:19:19.739Z,995.96
2016-06-15T10:20:19.775Z,996.02
2016-06-15T10:21:19.811Z,996.03
2016-06-15T10:22:19.832Z,996.03
2016-06-15T10:23:19.868Z,996
2016-06-15T10:24:19.903Z,995.98
2016-06-15T10:25:19.923Z,995.97
2016-06-15T10:26:19.958Z,995.95
2016-06-15T10:27:19.991Z,995.92
2016-06-15T10:28:20.011Z,995.94
2016-06-15T10:29:20.046Z,995.94
2016-06-15T10:30:20.080Z,995.92
2016-06-15T10:31:20.115Z,995.96
2016-06-15T10:32:20.134Z,995.93
2016-06-15T10:33:20.169Z,995.93
2016-06-15T10:34:20.204Z,995.93
2016-06-15T10:35:21.004Z,995.97
2016-06-15T10:36:23.397Z,995.99
2016-06-15T10:37:22.073Z,995.99
2016-06-15T10:38:22.247Z,995.95
2016-06-15T10:39:23.438Z,995.98
2016-06-15T10:40:28.363Z,996
2016-06-15T10:41:21.695Z,995.96
2016-06-15T10:42:51.213Z,995.92
2016-06-15T10:43:43.763Z,995.95
2016-06-15T10:44:43.829Z,995.92
2016-06-15T10:45:44.535Z,995.96
2016-06-15T10:47:07.666Z,995.95
2016-06-15T10:47:52.181Z,995.97
2016-06-15T10:48:57.591Z,995.98
2016-06-15T10:49:58.329Z,996.04
2016-06-15T10:51:00.644Z,996
2016-06-15T10:52:12.166Z,996.07
2016-06-15T10:53:41.216Z,996.03
2016-06-15T10:55:48.534Z,996.02
2016-06-15T10:56:48.553Z,996
2016-06-15T10:57:48.572Z,996.02
2016-06-15T10:58:48.606Z,996.05
2016-06-15T10:59:48.641Z,996.02
2016-06-15T11:00:48.660Z,996.04
2016-06-15T11:01:48.694Z,996
2016-06-15T11:02:48.728Z,996.04
2016-06-15T11:03:48.763Z,996
2016-06-15T11:04:48.781Z,995.97
2016-06-15T11:05:48.815Z,996.03
2016-06-15T11:06:48.851Z,996.05
2016-06-15T11:07:48.868Z,996.02
2016-06-15T11:08:48.903Z,996.02
2016-06-15T11:09:48.938Z,995.99
2016-06-15T11:10:48.955Z,996.05
2016-06-15T11:11:48.991Z,996.07
2016-06-15T11:12:49.025Z,996.05
2016-06-15T11:13:49.044Z,996.08
2016-06-15T11:14:49.077Z,996.09
2016-06-15T11:15:49.112Z,996.05
2016-06-15T11:16:49.178Z,996.02
2016-06-15T11:17:49.165Z,996.05
2016-06-15T11:18:49.200Z,996.06
2016-06-15T11:19:49.218Z,996.06
2016-06-15T11:20:49.253Z,996.08
2016-06-15T11:21:49.350Z,996.06
2016-06-15T11:22:49.305Z,996.07
2016-06-15T11:23:49.339Z,996.1
2016-06-15T11:24:49.359Z,996.08
2016-06-15T11:25:49.392Z,996.13
2016-06-15T11:26:49.427Z,996.14
2016-06-15T11:27:49.446Z,996.11
2016-06-15T11:28:49.479Z,996.13
2016-06-15T11:29:49.514Z,996.13
2016-06-15T11:30:49.533Z,996.12
2016-06-15T11:31:49.567Z,996.09
2016-06-15T11:32:49.586Z,996.1
2016-06-15T11:33:49.620Z,996.1
2016-06-15T11:34:49.654Z,996.07
2016-06-15T11:35:49.674Z,996.13
2016-06-15T11:36:49.708Z,996.12
2016-06-15T11:37:49.726Z,996.14
2016-06-15T11:38:49.760Z,996.16
2016-06-15T11:39:49.794Z,996.18
2016-06-15T11:40:49.813Z,996.18
2016-06-15T11:41:49.848Z,996.15
2016-06-15T11:42:49.883Z,996.15
2016-06-15T11:43:49.901Z,996.12
2016-06-15T11:44:49.935Z,996.14
2016-06-15T11:45:49.954Z,996.18
2016-06-15T11:46:49.989Z,996.16
2016-06-15T11:47:50.023Z,996.21
2016-06-15T11:48:50.057Z,996.24
2016-06-15T11:49:50.076Z,996.31
2016-06-15T11:50:50.094Z,996.4
2016-06-15T11:51:50.129Z,996.49
2016-06-15T11:52:50.148Z,996.63
2016-06-15T11:53:50.182Z,996.59
2016-06-15T11:54:50.216Z,996.68
2016-06-15T11:55:50.250Z,996.69
2016-06-15T11:56:50.269Z,996.79
2016-06-15T11:57:50.304Z,996.8
2016-06-15T11:58:50.322Z,996.78
2016-06-15T11:59:50.373Z,996.82
2016-06-15T12:00:50.375Z,996.86
2016-06-15T12:01:50.410Z,996.85
2016-06-15T12:02:50.445Z,996.85
2016-06-15T12:03:50.463Z,996.86
2016-06-15T12:04:50.497Z,996.9
2016-06-15T12:05:50.515Z,996.9
2016-06-15T12:06:50.550Z,996.88
2016-06-15T12:07:50.568Z,996.82
2016-06-15T12:08:50.603Z,996.84
2016-06-15T12:09:50.637Z,996.86
2016-06-15T12:10:50.656Z,996.84
2016-06-15T12:11:50.690Z,996.87
2016-06-15T12:12:50.709Z,996.88
2016-06-15T12:13:50.759Z,996.87
2016-06-15T12:14:50.763Z,996.89
2016-06-15T12:15:50.797Z,996.91
2016-06-15T12:16:50.877Z,996.89
2016-06-15T12:17:50.849Z,996.92
2016-06-15T12:18:50.884Z,996.98
2016-06-15T12:19:50.903Z,996.93
2016-06-15T12:20:50.937Z,996.97
2016-06-15T12:21:50.971Z,996.96
2016-06-15T12:22:50.989Z,996.99
2016-06-15T12:23:51.024Z,996.98
2016-06-15T12:24:51.043Z,996.98
2016-06-15T12:25:51.077Z,996.99
2016-06-15T12:26:51.096Z,996.98
2016-06-15T12:27:51.130Z,997
2016-06-15T12:28:51.164Z,997
2016-06-15T12:29:51.184Z,996.98
2016-06-15T12:30:51.218Z,996.97
2016-06-15T12:31:51.237Z,996.99
2016-06-15T12:32:51.270Z,997
2016-06-15T12:33:51.289Z,996.99
2016-06-15T12:34:51.324Z,996.97